Avalon, Texas
Current Conditions -  °F | °C
As of 9:35 AM on Saturday 22 Nov 2014 (Local Time) from KJWY Reporting Station
Drizzle Drizzle  
Wind Chill: 58°   Ceiling: 200
Heat Index: 58°   Visibility: 1mi
Dew Point: 58°   Wind: 8mph
Humidity: 100%   Direction: 130°SE
Pressure: 30.04"   Gusts: 17mph
Location:  32.21°N, 96.79°W
Report Text: KJWY 221535Z AUTO 13007G15KT 1SM -DZ OVC002 15/15 A3004 RMK AO2 T01450145
Loading
Personal Weather Stations






























Interactive Weather Map New forecast layout! Learn more

10-Day Weather Forecast

Advertisements
Track Severe Weather on mobile